Portada
METAR-TAF:

METAR-TAF

Aeroports :

Hanoi, Vietnam

latitud: 21-01N, longitud: 105-48E, altitud: 6 m

Observació

L'informe es va fer fa 33 minuts, a les 04:30 UTC
Vent 3 kt del Est, variant entre Nord/Nord-Est i Sud-Est
Temperatura 33°C
Humitat 59%
Pressió 1005 hPa
Visibilitat: 9000 m
Escasses núvols a una alçada de 2500 ft

METAR: VVNB 110430Z 09003KT 030V140 9000 FEW025 33/24 Q1005 NOSIG

Hora: 12:03 (05:03 UTC)

Pronòstic

L'informe es va fer fa 6 hores i 3 minuts, a les 23:00 UTC
Pronòstic vàlid del 11 a les 00 UTC al 11 a les 24 UTC
Vent 5 kt del Est/Sud-Est
Visibilitat: 8000 m
Núvols disperses a una alçada de 2000 ft
Temporalment
l' 11 a les 09 UTC al 11 a les 13 UTC
Vent 15 kt del Sud/Sud-Oest amb ràfegues de 25 kt
Visibilitat: 3000 m
Cel ennuvolat a una alçada de 800 ft
Escasses núvols a una alçada de 2700 ft, Cumulonimbus.
tempesta, pluja

TAF: VVNB 102300Z 1100/1124 12005KT 8000 SCT020 TEMPO 1109/1113 21015G25KT 3000 +TSRA BKN008 FEW027CB

Observacions i pronòstics meteorològics de més de 4000 aeroports (METAR i TAF).

Les estacions disponibles són els punts grocs i vermells al mapa.

Posi el ratolí al punt desitjat per veure el nom de l'estació.

Feu clic per veure les observacions i els pronòstics meteorològics.

Per canviar el mapa: feu clic els botons verds amb una creu de color negre per apropar; al botó verd amb un guió per allunyar la imatge; o en les fletxes verdes per a mapes adjacents.


METAR-TAF: